Time;durP1;ratioP1;P1;durP2;ratioP2;P2;SDS_P1;SDS_P2;PMS_P1;PMS_P2;Temp;Humidity;BMP_temperature;BMP_pressure;BME280_temperature;BME280_humidity;BME280_pressure;Samples;Min_cycle;Max_cycle;Signal;HPM_P1;HPM_P2
2022/12/01 00:06:43;;;;;;;1999.90;999.90;;;6.90;99.90;;;;;;6715722;88;20199;-76
2022/12/01 00:16:43;;;;;;;1999.90;999.90;;;6.90;99.90;;;;;;6713905;88;20191;-76
2022/12/01 00:26:44;;;;;;;1999.90;999.90;;;6.80;99.90;;;;;;6718604;88;20214;-76
2022/12/01 00:36:45;;;;;;;1999.90;999.90;;;6.80;99.90;;;;;;6710975;88;20375;-77
2022/12/01 00:46:45;;;;;;;1999.90;999.90;;;6.80;99.90;;;;;;6714083;88;20199;-76
2022/12/01 00:56:46;;;;;;;1999.90;999.90;;;6.80;99.90;;;;;;6716324;88;20175;-78
2022/12/01 01:06:47;;;;;;;1999.90;999.90;;;6.80;99.90;;;;;;6713342;88;20909;-77
2022/12/01 01:16:48;;;;;;;1999.90;999.90;;;6.80;99.90;;;;;;6713343;88;20743;-77
2022/12/01 01:26:49;;;;;;;1999.90;999.90;;;6.80;99.90;;;;;;6709430;88;20321;-78
2022/12/01 01:36:49;;;;;;;1999.90;999.90;;;6.90;99.90;;;;;;6719422;77;20230;-72
2022/12/01 01:46:50;;;;;;;1999.90;999.90;;;6.80;99.90;;;;;;6729699;88;20190;-73
2022/12/01 01:56:52;;;;;;;1999.90;999.90;;;6.90;99.90;;;;;;6735300;88;20233;-73
2022/12/01 02:06:53;;;;;;;1999.90;999.90;;;6.80;99.90;;;;;;6734534;88;20753;-73
2022/12/01 02:17:09;;;;;;;1999.90;999.90;;;6.90;99.90;;;;;;6732766;88;20177;-72
2022/12/01 02:27:24;;;;;;;1999.90;999.90;;;6.80;99.90;;;;;;6735038;88;20185;-73
2022/12/01 02:37:57;;;;;;;1999.90;999.90;;;6.80;99.90;;;;;;6735267;88;20278;-72
2022/12/01 02:48:01;;;;;;;1999.90;999.90;;;6.70;99.90;;;;;;6738782;88;20247;-74
2022/12/01 02:58:11;;;;;;;1999.90;999.90;;;6.70;99.90;;;;;;6742325;88;20209;-73
2022/12/01 03:08:35;;;;;;;1999.90;999.90;;;6.70;99.90;;;;;;6734637;88;20204;-73
2022/12/01 03:18:37;;;;;;;1999.90;999.90;;;6.70;99.90;;;;;;6731620;88;20248;-73
2022/12/01 03:28:45;;;;;;;1999.90;999.90;;;6.50;99.90;;;;;;6732886;88;20198;-74
2022/12/01 03:38:50;;;;;;;1999.90;999.90;;;6.50;99.90;;;;;;6738604;88;20193;-74
2022/12/01 03:48:53;;;;;;;1999.90;999.90;;;6.40;99.90;;;;;;6743492;88;20250;-75
2022/12/01 03:58:56;;;;;;;1999.90;999.90;;;6.50;99.90;;;;;;6745375;88;20374;-75
2022/12/01 04:08:56;;;;;;;1999.90;999.90;;;6.50;99.90;;;;;;6736845;88;20236;-73
2022/12/01 04:18:57;;;;;;;1999.90;999.90;;;6.40;99.90;;;;;;6733549;88;20234;-74
2022/12/01 04:29:01;;;;;;;1999.90;999.90;;;6.50;99.90;;;;;;6731238;88;20196;-74
2022/12/01 04:39:02;;;;;;;1999.90;999.90;;;6.40;99.90;;;;;;6736397;88;20273;-73
2022/12/01 04:49:04;;;;;;;1999.90;999.90;;;6.50;99.90;;;;;;6735291;88;20272;-73
2022/12/01 04:59:05;;;;;;;1999.90;999.90;;;6.40;99.90;;;;;;6746989;88;20747;-74
2022/12/01 05:09:06;;;;;;;1999.90;999.90;;;6.40;99.90;;;;;;6740875;88;20308;-73
2022/12/01 05:29:26;;;;;;;1999.90;999.90;;;6.40;99.90;;;;;;6733270;88;20268;-72
2022/12/01 05:39:27;;;;;;;1999.90;999.90;;;6.40;99.90;;;;;;6736500;88;20314;-73
2022/12/01 05:49:27;;;;;;;1999.90;999.90;;;6.50;99.90;;;;;;6737875;88;20696;-73
2022/12/01 05:59:28;;;;;;;1999.90;999.90;;;6.40;99.90;;;;;;6737948;88;20177;-72
2022/12/01 06:09:28;;;;;;;1999.90;999.90;;;6.40;99.90;;;;;;6731074;88;20184;-73
2022/12/01 06:19:30;;;;;;;1999.90;999.90;;;6.40;99.90;;;;;;6731963;88;20246;-74
2022/12/01 06:29:30;;;;;;;1999.90;999.90;;;6.50;99.90;;;;;;6738414;88;20223;-73
2022/12/01 06:39:31;;;;;;;1999.90;999.90;;;6.40;99.90;;;;;;6734424;88;20332;-74
2022/12/01 06:49:31;;;;;;;1999.90;999.90;;;6.50;99.90;;;;;;6730244;88;20181;-74
2022/12/01 06:59:32;;;;;;;1999.90;999.90;;;6.50;99.90;;;;;;6733144;88;20306;-74
2022/12/01 07:09:33;;;;;;;1999.90;999.90;;;6.50;99.90;;;;;;6730808;88;20546;-74
2022/12/01 07:19:34;;;;;;;1999.90;999.90;;;6.50;99.90;;;;;;6732517;88;20222;-74
2022/12/01 07:29:35;;;;;;;1999.90;999.90;;;6.40;99.90;;;;;;6729770;88;20211;-75
2022/12/01 07:39:35;;;;;;;1999.90;999.90;;;6.30;99.90;;;;;;6724903;77;20205;-77
2022/12/01 07:49:36;;;;;;;1999.90;999.90;;;6.40;99.90;;;;;;6716105;88;20534;-77
2022/12/01 07:59:37;;;;;;;1999.90;999.90;;;6.40;99.90;;;;;;6723164;88;20216;-76
2022/12/01 08:09:37;;;;;;;1999.90;999.90;;;6.40;99.90;;;;;;6716895;88;20267;-76
2022/12/01 08:19:38;;;;;;;1999.90;999.90;;;6.50;99.90;;;;;;6719993;88;20234;-76
2022/12/01 08:29:38;;;;;;;1999.90;999.90;;;6.40;99.90;;;;;;6720256;88;20207;-77
2022/12/01 08:39:39;;;;;;;1999.90;999.90;;;6.50;99.90;;;;;;6719898;88;20637;-76
2022/12/01 08:49:39;;;;;;;1999.90;999.90;;;6.50;99.90;;;;;;6720273;88;20721;-77
2022/12/01 08:59:40;;;;;;;1999.90;999.90;;;6.40;99.90;;;;;;6720271;88;20271;-76
2022/12/01 09:09:42;;;;;;;1999.90;999.90;;;6.50;99.90;;;;;;6721020;88;20240;-76
2022/12/01 09:19:43;;;;;;;1999.90;999.90;;;6.60;99.90;;;;;;6725472;88;20210;-75
2022/12/01 09:29:43;;;;;;;1999.90;999.90;;;6.70;99.90;;;;;;6720706;88;20199;-75
2022/12/01 09:39:44;;;;;;;1999.90;999.90;;;6.80;99.90;;;;;;6723153;88;20189;-75
2022/12/01 09:50:02;;;;;;;1999.90;999.90;;;6.80;99.90;;;;;;6719875;88;20218;-76
2022/12/01 10:00:13;;;;;;;1999.90;999.90;;;6.70;99.90;;;;;;6724855;88;20235;-75
2022/12/01 10:10:22;;;;;;;1999.90;999.90;;;6.80;99.90;;;;;;6727608;88;20168;-75
2022/12/01 10:21:13;;;;;;;1999.90;999.90;;;6.80;99.90;;;;;;6725009;88;20757;-75
2022/12/01 10:31:33;;;;;;;1999.90;999.90;;;6.90;99.90;;;;;;6711551;88;20792;-76
2022/12/01 10:41:36;;;;;;;1999.90;999.90;;;6.70;99.90;;;;;;6721053;88;20182;-74
2022/12/01 10:51:55;;;;;;;1999.90;999.90;;;6.80;99.90;;;;;;6719505;88;20693;-74
2022/12/01 11:01:57;;;;;;;1999.90;999.90;;;6.80;99.90;;;;;;6722088;88;21519;-77
2022/12/01 11:12:00;;;;;;;1999.90;999.90;;;6.80;99.90;;;;;;6722268;88;20660;-75
2022/12/01 11:22:18;;;;;;;1999.90;999.90;;;6.90;99.90;;;;;;6717619;88;20249;-75
2022/12/01 11:32:26;;;;;;;1999.90;999.90;;;6.90;99.90;;;;;;6713331;88;20570;-75
2022/12/01 11:42:29;;;;;;;1999.90;999.90;;;7.00;99.90;;;;;;6718899;88;20204;-75
2022/12/01 11:52:32;;;;;;;1999.90;999.90;;;7.10;99.90;;;;;;6720640;88;20197;-75
2022/12/01 12:02:50;;;;;;;1999.90;999.90;;;7.00;99.90;;;;;;6723163;88;20176;-75
2022/12/01 12:13:08;;;;;;;1999.90;999.90;;;7.10;99.90;;;;;;6720463;88;20190;-75
2022/12/01 12:23:39;;;;;;;1999.90;999.90;;;7.10;99.90;;;;;;6722015;88;20326;-75
2022/12/01 12:34:09;;;;;;;1999.90;999.90;;;7.20;99.90;;;;;;6718392;88;20197;-75
2022/12/01 12:44:24;;;;;;;1999.90;999.90;;;7.20;99.90;;;;;;6717776;88;20189;-75
2022/12/01 12:54:27;;;;;;;1999.90;999.90;;;7.10;99.90;;;;;;6721786;88;20752;-75
2022/12/01 13:04:45;;;;;;;1999.90;999.90;;;7.20;99.90;;;;;;6718601;88;20241;-74
2022/12/01 13:14:51;;;;;;;1999.90;999.90;;;7.20;99.90;;;;;;6716234;88;20188;-76
2022/12/01 13:24:52;;;;;;;1999.90;999.90;;;7.30;99.90;;;;;;6722406;88;20215;-75
2022/12/01 13:34:53;;;;;;;1999.90;999.90;;;7.20;99.90;;;;;;6717017;77;20645;-74
2022/12/01 13:44:56;;;;;;;1999.90;999.90;;;7.30;99.90;;;;;;6685208;88;20655;-74
2022/12/01 13:55:00;;;;;;;1999.90;999.90;;;7.20;99.90;;;;;;6677539;88;20215;-75
2022/12/01 14:05:42;;;;;;;1999.90;999.90;;;7.20;99.90;;;;;;6673719;88;20171;-75
2022/12/01 14:15:43;;;;;;;1999.90;999.90;;;7.20;99.90;;;;;;6676531;88;20717;-75
2022/12/01 14:26:21;;;;;;;1999.90;999.90;;;7.10;99.90;;;;;;6674655;88;20308;-75
2022/12/01 14:36:43;;;;;;;1999.90;999.90;;;7.00;99.90;;;;;;6671638;88;20195;-75
2022/12/01 14:46:47;;;;;;;1999.90;999.90;;;7.00;99.90;;;;;;6675820;88;20191;-75
2022/12/01 14:56:52;;;;;;;1999.90;999.90;;;7.00;99.90;;;;;;6678014;88;20742;-75
2022/12/01 15:06:55;;;;;;;1999.90;999.90;;;6.90;99.90;;;;;;6674346;88;20243;-74
2022/12/01 15:16:56;;;;;;;1999.90;999.90;;;6.80;99.90;;;;;;6666296;88;20230;-74
2022/12/01 15:26:58;;;;;;;1999.90;999.90;;;6.80;99.90;;;;;;6668580;88;20389;-74
2022/12/01 15:37:03;;;;;;;1999.90;999.90;;;6.70;99.90;;;;;;6693639;88;20199;-75
2022/12/01 15:47:30;;;;;;;1999.90;999.90;;;6.70;99.90;;;;;;6675714;88;20603;-75
2022/12/01 15:57:30;;;;;;;1999.90;999.90;;;6.50;99.90;;;;;;6671880;88;20201;-76
2022/12/01 16:07:34;;;;;;;1999.90;999.90;;;6.50;99.90;;;;;;6672743;88;20207;-74
2022/12/01 16:17:44;;;;;;;1999.90;999.90;;;6.30;99.90;;;;;;6670237;88;20586;-74
2022/12/01 16:27:52;;;;;;;1999.90;999.90;;;6.40;99.90;;;;;;6670454;88;21033;-75
2022/12/01 16:37:54;;;;;;;1999.90;999.90;;;6.40;99.90;;;;;;6664495;88;20703;-74
2022/12/01 16:47:54;;;;;;;1999.90;999.90;;;6.30;99.90;;;;;;6662845;88;20195;-74
2022/12/01 16:57:55;;;;;;;1999.90;999.90;;;6.40;99.90;;;;;;6672652;88;20207;-74
2022/12/01 17:07:55;;;;;;;1999.90;999.90;;;6.30;99.90;;;;;;6671179;88;20371;-75
2022/12/01 17:17:56;;;;;;;1999.90;999.90;;;6.20;99.90;;;;;;6671496;88;20191;-76
2022/12/01 17:27:57;;;;;;;1999.90;999.90;;;6.10;99.90;;;;;;6671625;88;20187;-76
2022/12/01 17:37:57;;;;;;;1999.90;999.90;;;6.10;99.90;;;;;;6671075;88;20224;-75
2022/12/01 17:47:58;;;;;;;1999.90;999.90;;;6.10;99.90;;;;;;6672404;88;20679;-76
2022/12/01 17:57:58;;;;;;;1999.90;999.90;;;6.00;99.90;;;;;;6673840;88;20194;-75
2022/12/01 18:07:59;;;;;;;1999.90;999.90;;;5.90;99.90;;;;;;6669261;88;20666;-74
2022/12/01 18:17:59;;;;;;;1999.90;999.90;;;6.00;99.90;;;;;;6671008;88;20217;-74
2022/12/01 18:28:00;;;;;;;1999.90;999.90;;;5.80;99.90;;;;;;6670769;88;20175;-75
2022/12/01 18:38:01;;;;;;;1999.90;999.90;;;5.90;99.90;;;;;;6676372;88;20800;-74
2022/12/01 18:48:03;;;;;;;1999.90;999.90;;;5.80;99.90;;;;;;6672428;88;20278;-74
2022/12/01 18:58:04;;;;;;;1999.90;999.90;;;5.80;99.90;;;;;;6672696;88;20773;-75
2022/12/01 19:08:05;;;;;;;1999.90;999.90;;;5.80;99.90;;;;;;6672762;88;20198;-74
2022/12/01 19:18:05;;;;;;;1999.90;999.90;;;5.60;99.90;;;;;;6664982;88;20514;-74
2022/12/01 19:28:07;;;;;;;1999.90;999.90;;;5.60;99.90;;;;;;6675146;88;20258;-74
2022/12/01 19:48:10;;;;;;;1999.90;999.90;;;5.70;99.90;;;;;;6708780;88;20210;-77
2022/12/01 19:58:11;;;;;;;1999.90;999.90;;;5.70;99.90;;;;;;6703972;88;20196;-78
2022/12/01 20:08:12;;;;;;;1999.90;999.90;;;5.60;99.90;;;;;;6701507;88;21115;-78
2022/12/01 20:18:16;;;;;;;1999.90;999.90;;;5.60;99.90;;;;;;6702084;88;20800;-79
2022/12/01 20:28:17;;;;;;;1999.90;999.90;;;5.70;99.90;;;;;;6704560;88;20242;-77
2022/12/01 20:38:18;;;;;;;1999.90;999.90;;;5.60;99.90;;;;;;6693128;88;20198;-78
2022/12/01 20:48:20;;;;;;;1999.90;999.90;;;5.60;99.90;;;;;;6695770;88;20322;-78
2022/12/01 20:58:21;;;;;;;1999.90;999.90;;;5.50;99.90;;;;;;6703834;88;20206;-77
2022/12/01 21:08:22;;;;;;;1999.90;999.90;;;5.50;99.90;;;;;;6705334;88;20191;-77
2022/12/01 21:18:25;;;;;;;1999.90;999.90;;;5.50;99.90;;;;;;6703253;88;20576;-77
2022/12/01 21:28:26;;;;;;;1999.90;999.90;;;5.40;99.90;;;;;;6685863;88;20301;-77
2022/12/01 21:38:27;;;;;;;1999.90;999.90;;;5.30;99.90;;;;;;6686711;88;20726;-77
2022/12/01 21:48:35;;;;;;;1999.90;999.90;;;5.40;99.90;;;;;;6685841;88;20673;-77
2022/12/01 21:58:36;;;;;;;1999.90;999.90;;;5.40;99.90;;;;;;6685172;88;20232;-78
2022/12/01 22:08:40;;;;;;;1999.90;999.90;;;5.30;99.90;;;;;;6684226;88;20267;-78
2022/12/01 22:18:47;;;;;;;1999.90;999.90;;;5.40;99.90;;;;;;6682887;88;20260;-78
2022/12/01 22:28:55;;;;;;;1999.90;999.90;;;5.30;99.90;;;;;;6684177;88;20190;-77
2022/12/01 22:38:57;;;;;;;1999.90;999.90;;;5.30;99.90;;;;;;6684248;88;20228;-78
2022/12/01 22:49:02;;;;;;;1999.90;999.90;;;5.40;99.90;;;;;;6684319;88;20206;-77
2022/12/01 22:59:26;;;;;;;1999.90;999.90;;;5.30;99.90;;;;;;6684636;88;21096;-78
2022/12/01 23:09:34;;;;;;;1999.90;999.90;;;5.30;99.90;;;;;;6691461;88;20190;-78
2022/12/01 23:19:35;;;;;;;1999.90;999.90;;;5.20;99.90;;;;;;6685149;88;20202;-78
2022/12/01 23:29:36;;;;;;;1999.90;999.90;;;5.10;99.90;;;;;;6684274;88;20594;-77
2022/12/01 23:39:36;;;;;;;1999.90;999.90;;;5.00;99.90;;;;;;6686520;88;20220;-77
2022/12/01 23:49:37;;;;;;;1999.90;999.90;;;5.00;99.90;;;;;;6684644;88;20190;-78
2022/12/01 23:59:38;;;;;;;1999.90;999.90;;;5.00;99.90;;;;;;6683665;88;20190;-77
